New Brighton, MN

8:32 PM CDT on July 05, 2015 (GMT -0500)
AC Columbia Heights | | Change Station
CLOSE
Current Station
Personal Weather Station
Location: Columbia Heights, MN
Elevation: 1050 ft
Nearby Weather Stations

Elev 1050 ft 45.05 °N, 93.23 °W | Updated 13 minutes ago

Partly Cloudy
Partly Cloudy
82.5 °F
Feels Like 87 °F
N
4.0
Wind Variable Wind from SW
Gusts 13.0 mph

Today
High -- | Low -- °F
--% Chance of Precip.
Yesterday
High -- | Low -- °F
Precip. -- in
5:31 AM 9:02 PM
Waning Gibbous, 80% visible
Pressure 29.80 in
Visibility 10.0 miles
Clouds Scattered Clouds 4100 ft
Scattered Clouds 20000 ft
Heat Index 87 °F
Dew Point 71 °F
Humidity 68%
Rainfall 0.00 in
Snow Depth Not available.
UV 0 out of 12
Pollen 3.30 out of 12
Air Quality Not available.
Flu Activity Not available.
METAR KANE 060050Z 17015G20KT 10SM SCT041 SCT200 29/21 A2980

More Conditions Fewer Conditions

Pressure 29.80 in
Visibility 10.0 miles
Clouds Scattered Clouds 4100 ft
Scattered Clouds 20000 ft
Heat Index 87 °F
Dew Point 71 °F
Humidity 68%
Rainfall 0.00 in
Snow Depth Not available.
UV 0 out of 12
Pollen 3.30 out of 12
Air Quality Not available.
Flu Activity Not available.
METAR KANE 060050Z 17015G20KT 10SM SCT041 SCT200 29/21 A2980

More Conditions Fewer Conditions

10-Day Weather Forecast

×

Almanac

Astronomy

Jul. 05, 2015 Rise Set
Actual Time
Civil Twilight
Nautical Twilight
Astronomical Twilight
Moon
Length of Visible Light
Length of Day
Tomorrow will be .
, % of the Moon is Illuminated

Today's Extremes

State Highs State Lows

Community

WunderPhotos

Upload Photos

1,835,443 photos uploaded!

WunderBlogs® & News

Nearby

Air Quality

  Air Quality AQ Index Pollutant
Not available.

Snow Depth

Station Depth Elevation

Earthquake Activity

City Distance Mag. Time & Date
Minimum magnitude displayed is 2.5.

Coastal Water Temperatures

Place Temperature

Stations

Nearby Weather Stations

Station Location Temp. Windchill Dew Point Humidity Wind Precip. Elev Updated Type